Time;durP1;ratioP1;P1;durP2;ratioP2;P2;SDS_P1;SDS_P2;PMS_P1;PMS_P2;Temp;Humidity;BMP_temperature;BMP_pressure;BME280_temperature;BME280_humidity;BME280_pressure;Samples;Min_cycle;Max_cycle;Signal;HPM_P1;HPM_P2
2023/08/31 00:01:31;;;;;;;8.75;6.40;;;;;;;11.02;100.00;100785.03;5042833;28;20506;-67
2023/08/31 00:03:56;;;;;;;9.52;6.75;;;;;;;11.04;100.00;100790.19;5037240;28;20050;-66
2023/08/31 00:06:21;;;;;;;9.30;6.80;;;;;;;11.03;100.00;100793.84;5038854;28;20436;-67
2023/08/31 00:08:47;;;;;;;10.35;7.00;;;;;;;11.03;100.00;100788.53;5038532;28;20040;-67
2023/08/31 00:11:12;;;;;;;9.40;7.22;;;;;;;10.99;100.00;100790.72;5039469;28;20511;-66
2023/08/31 00:13:38;;;;;;;8.88;7.88;;;;;;;11.01;100.00;100788.69;5037809;28;20031;-66
2023/08/31 00:16:04;;;;;;;12.02;7.93;;;;;;;11.00;100.00;100786.22;5037778;28;20028;-66
2023/08/31 00:18:30;;;;;;;13.05;8.23;;;;;;;10.96;100.00;100791.03;5040000;28;20520;-66
2023/08/31 00:20:55;;;;;;;14.27;8.80;;;;;;;10.96;100.00;100784.88;5037677;28;20617;-67
2023/08/31 00:23:20;;;;;;;10.43;8.68;;;;;;;10.93;100.00;100788.72;5032349;28;20032;-67
2023/08/31 00:25:47;;;;;;;12.95;9.75;;;;;;;10.92;100.00;100791.56;5041530;28;20029;-67
2023/08/31 00:28:15;;;;;;;13.57;9.63;;;;;;;10.89;100.00;100784.75;5040808;28;20514;-67
2023/08/31 00:30:40;;;;;;;13.23;10.05;;;;;;;10.89;100.00;100784.75;5033449;28;20045;-66
2023/08/31 00:33:06;;;;;;;13.27;10.55;;;;;;;10.85;100.00;100778.97;5037367;28;20032;-67
2023/08/31 00:35:33;;;;;;;13.88;10.68;;;;;;;10.85;100.00;100783.44;5034698;28;20033;-67
2023/08/31 00:37:58;;;;;;;13.52;11.35;;;;;;;10.82;100.00;100781.16;5032137;28;20029;-66
2023/08/31 00:40:28;;;;;;;14.18;10.55;;;;;;;10.81;100.00;100782.16;5038703;28;20414;-67
2023/08/31 00:42:53;;;;;;;15.57;11.77;;;;;;;10.80;100.00;100781.31;5045214;28;20035;-67
2023/08/31 00:45:22;;;;;;;16.75;11.48;;;;;;;10.80;100.00;100791.94;5039847;28;20030;-67
2023/08/31 00:47:49;;;;;;;14.85;11.88;;;;;;;10.74;100.00;100774.06;5036797;28;20383;-67
2023/08/31 00:50:15;;;;;;;15.77;11.77;;;;;;;10.79;100.00;100784.97;5033512;28;20075;-67
2023/08/31 00:52:41;;;;;;;13.98;12.25;;;;;;;10.77;100.00;100784.31;5035072;28;20029;-67
2023/08/31 00:55:08;;;;;;;15.25;12.18;;;;;;;10.76;100.00;100782.69;5034004;28;20025;-67
2023/08/31 00:57:33;;;;;;;16.73;12.68;;;;;;;10.77;100.00;100776.34;5041713;28;20025;-66
2023/08/31 00:59:58;;;;;;;18.58;13.35;;;;;;;10.75;100.00;100778.38;5038578;28;20071;-66
2023/08/31 01:02:42;;;;;;;17.90;13.43;;;;;;;10.73;100.00;100775.06;5041934;28;20154;-66
2023/08/31 01:05:29;;;;;;;17.73;12.93;;;;;;;10.72;100.00;100778.72;5041289;28;20025;-67
2023/08/31 01:08:23;;;;;;;17.65;13.82;;;;;;;10.72;100.00;100772.56;5041110;28;20044;-66
2023/08/31 01:11:04;;;;;;;18.95;14.38;;;;;;;10.71;100.00;100777.06;5042750;28;20155;-66
2023/08/31 01:13:31;;;;;;;20.23;14.82;;;;;;;10.69;100.00;100772.88;5041527;28;20029;-67
2023/08/31 01:16:00;;;;;;;21.67;15.70;;;;;;;10.69;100.00;100779.03;5038059;28;20033;-66
2023/08/31 01:18:27;;;;;;;22.13;15.52;;;;;;;10.67;100.00;100791.66;5040976;28;20467;-67
2023/08/31 01:21:02;;;;;;;18.98;14.93;;;;;;;10.64;100.00;100792.00;5042515;28;20446;-66
2023/08/31 01:23:35;;;;;;;19.30;15.07;;;;;;;10.61;100.00;100795.00;5040907;28;20488;-67
2023/08/31 01:26:01;;;;;;;17.70;15.10;;;;;;;10.58;100.00;100786.56;5043554;28;20116;-67
2023/08/31 01:28:27;;;;;;;24.35;15.95;;;;;;;10.55;100.00;100785.06;5040829;28;20531;-67
2023/08/31 01:30:52;;;;;;;20.25;16.63;;;;;;;10.59;100.00;100790.88;5037165;28;20032;-67
2023/08/31 01:33:17;;;;;;;21.02;16.92;;;;;;;10.58;100.00;100790.03;5044327;28;20552;-67
2023/08/31 01:35:52;;;;;;;20.90;16.45;;;;;;;10.57;100.00;100791.03;5038154;28;20028;-66
2023/08/31 01:38:21;;;;;;;23.08;16.50;;;;;;;10.56;100.00;100794.69;5044164;28;20025;-66
2023/08/31 01:40:53;;;;;;;20.00;16.42;;;;;;;10.55;100.00;100793.03;5042538;28;20028;-67
2023/08/31 01:43:18;;;;;;;23.40;17.05;;;;;;;10.56;100.00;100794.69;5045245;28;20158;-66
2023/08/31 01:45:46;;;;;;;20.85;16.73;;;;;;;10.58;100.00;100803.31;5042598;28;20064;-66
2023/08/31 01:48:13;;;;;;;21.45;16.65;;;;;;;10.60;100.00;100805.81;5033224;28;20025;-67
2023/08/31 01:50:39;;;;;;;24.30;17.40;;;;;;;10.60;100.00;100796.00;5043530;28;20032;-67
2023/08/31 01:53:06;;;;;;;21.58;17.00;;;;;;;10.62;100.00;100801.97;5033747;28;20025;-67
2023/08/31 01:55:32;;;;;;;21.58;17.10;;;;;;;10.59;100.00;100791.69;5040051;28;20186;-66
2023/08/31 01:57:57;;;;;;;22.85;17.00;;;;;;;10.66;100.00;100795.31;5032943;28;20107;-67
2023/08/31 02:00:22;;;;;;;23.67;16.85;;;;;;;10.69;100.00;100797.63;5040476;28;20162;-67
2023/08/31 02:02:48;;;;;;;20.92;17.15;;;;;;;10.71;100.00;100792.16;5041146;28;20032;-67
2023/08/31 02:05:13;;;;;;;21.73;17.23;;;;;;;10.72;100.00;100792.00;5039272;28;20108;-67
2023/08/31 02:07:40;;;;;;;23.20;17.63;;;;;;;10.74;100.00;100786.50;5039360;28;20790;-67
2023/08/31 02:10:06;;;;;;;23.42;17.70;;;;;;;10.77;100.00;100791.47;5041090;28;20029;-67
2023/08/31 02:12:32;;;;;;;24.05;17.00;;;;;;;10.77;100.00;100786.16;5041773;28;20037;-67
2023/08/31 02:14:57;;;;;;;22.10;16.98;;;;;;;10.78;100.00;100783.31;5040819;28;20024;-66
2023/08/31 02:17:22;;;;;;;24.33;17.15;;;;;;;10.80;100.00;100785.81;5041722;28;20025;-66
2023/08/31 02:19:48;;;;;;;23.00;17.50;;;;;;;10.82;100.00;100787.28;5042240;28;20021;-66
2023/08/31 02:22:13;;;;;;;20.77;17.23;;;;;;;10.85;100.00;100789.59;5039432;28;20248;-66
2023/08/31 02:24:38;;;;;;;22.75;16.73;;;;;;;10.87;100.00;100789.41;5045531;28;20067;-67
2023/08/31 02:27:04;;;;;;;22.50;17.02;;;;;;;10.88;100.00;100801.69;5043091;28;20404;-66
2023/08/31 02:29:29;;;;;;;21.95;16.98;;;;;;;10.90;100.00;100796.22;5047213;28;20057;-66
2023/08/31 02:31:54;;;;;;;24.27;17.23;;;;;;;10.91;100.00;100792.56;5036644;28;20035;-66
2023/08/31 02:34:20;;;;;;;22.70;16.73;;;;;;;10.91;100.00;100792.56;5042630;28;20408;-67
2023/08/31 02:36:45;;;;;;;21.20;16.95;;;;;;;10.89;100.00;100795.38;5041828;28;20082;-66
2023/08/31 02:39:11;;;;;;;18.75;16.38;;;;;;;10.89;100.00;100799.88;5037806;28;20034;-66
2023/08/31 02:41:36;;;;;;;22.90;16.92;;;;;;;10.88;100.00;100803.53;5043612;28;20044;-66
2023/08/31 02:44:01;;;;;;;20.05;15.70;;;;;;;10.88;100.00;100798.22;5042997;28;20029;-67
2023/08/31 02:46:27;;;;;;;20.50;16.38;;;;;;;10.86;100.00;100801.06;5035890;28;20044;-66
2023/08/31 02:48:52;;;;;;;23.77;16.63;;;;;;;10.85;100.00;100804.72;5030171;28;20033;-66
2023/08/31 02:51:17;;;;;;;21.65;16.73;;;;;;;10.87;100.00;100813.34;5039871;28;20037;-66
2023/08/31 02:53:42;;;;;;;21.38;16.80;;;;;;;10.87;100.00;100813.34;5041080;28;20034;-66
2023/08/31 02:56:08;;;;;;;21.33;16.65;;;;;;;10.89;100.00;100802.53;5035985;28;20515;-67
2023/08/31 02:58:33;;;;;;;25.90;16.95;;;;;;;10.89;100.00;100807.84;5029894;28;20024;-67
2023/08/31 03:01:11;;;;;;;22.88;16.95;;;;;;;10.92;100.00;100804.84;5044543;28;20029;-67
2023/08/31 03:03:36;;;;;;;20.60;16.65;;;;;;;10.89;100.00;100807.84;5040086;28;20029;-66
2023/08/31 03:06:02;;;;;;;21.70;16.52;;;;;;;10.85;100.00;100802.88;5040289;28;20032;-66
2023/08/31 03:08:27;;;;;;;20.98;16.50;;;;;;;10.84;100.00;100798.56;5031591;28;20043;-67
2023/08/31 03:10:53;;;;;;;23.08;16.70;;;;;;;10.81;100.00;100793.59;5035244;28;20503;-67
2023/08/31 03:13:18;;;;;;;23.23;17.95;;;;;;;10.81;100.00;100798.09;5036875;28;20029;-66
2023/08/31 03:15:43;;;;;;;20.60;16.85;;;;;;;10.77;100.00;100796.78;5030197;28;20066;-66
2023/08/31 03:18:08;;;;;;;19.98;17.45;;;;;;;10.73;100.00;100798.97;5034790;28;20029;-67
2023/08/31 03:20:34;;;;;;;24.27;18.15;;;;;;;10.70;100.00;100796.66;5029684;28;20047;-67
2023/08/31 03:22:59;;;;;;;26.35;19.73;;;;;;;10.68;100.00;100797.78;5036225;28;20487;-66
2023/08/31 03:25:24;;;;;;;26.38;20.83;;;;;;;10.68;100.00;100798.63;5036697;28;20032;-66
2023/08/31 03:27:50;;;;;;;25.75;20.70;;;;;;;10.64;100.00;100794.66;5035216;28;20664;-67
2023/08/31 03:30:15;;;;;;;29.02;21.40;;;;;;;10.64;100.00;100802.63;5027949;28;20037;-67
2023/08/31 03:32:40;;;;;;;26.13;21.75;;;;;;;10.62;100.00;100814.41;5034714;28;20056;-66
2023/08/31 03:35:07;;;;;;;30.63;22.63;;;;;;;10.58;100.00;100805.97;5028096;28;20605;-66
2023/08/31 03:37:33;;;;;;;29.08;22.60;;;;;;;10.58;100.00;100802.50;5031656;28;20126;-66
2023/08/31 03:39:58;;;;;;;30.90;24.00;;;;;;;10.56;100.00;100805.31;5031628;28;20479;-66
2023/08/31 03:42:24;;;;;;;31.48;24.42;;;;;;;10.56;100.00;100800.00;5031331;28;20033;-67
2023/08/31 03:44:49;;;;;;;34.13;25.15;;;;;;;10.54;100.00;100797.53;5028599;28;20017;-66
2023/08/31 03:47:14;;;;;;;32.45;24.85;;;;;;;10.54;100.00;100799.34;5032240;28;20029;-66
2023/08/31 03:49:39;;;;;;;32.97;24.13;;;;;;;10.54;100.00;100792.22;5032571;28;20021;-66
2023/08/31 03:52:05;;;;;;;30.35;24.30;;;;;;;10.53;100.00;100800.34;5028325;28;20025;-66
2023/08/31 03:54:30;;;;;;;32.33;23.25;;;;;;;10.52;100.00;100804.00;5030949;28;20568;-66
2023/08/31 03:56:55;;;;;;;29.80;23.50;;;;;;;10.52;100.00;100798.69;5033066;28;20679;-67
2023/08/31 03:59:21;;;;;;;32.28;24.67;;;;;;;10.50;100.00;100798.88;5030693;28;20025;-67
2023/08/31 04:01:46;;;;;;;34.92;24.90;;;;;;;10.50;100.00;100798.03;5032207;28;20481;-66
2023/08/31 04:04:11;;;;;;;33.60;25.38;;;;;;;10.47;100.00;100796.56;5028530;28;20021;-66
2023/08/31 04:06:37;;;;;;;31.20;24.50;;;;;;;10.49;100.00;100805.19;5038135;28;20482;-66
2023/08/31 04:09:02;;;;;;;32.72;24.15;;;;;;;10.47;100.00;100807.19;5030305;28;20029;-66
2023/08/31 04:11:28;;;;;;;31.40;25.08;;;;;;;10.44;100.00;100802.22;5028847;28;20052;-67
2023/08/31 04:13:53;;;;;;;30.20;24.80;;;;;;;10.43;100.00;100811.19;5026624;28;20025;-66
2023/08/31 04:16:18;;;;;;;35.22;25.63;;;;;;;10.41;100.00;100813.19;5035596;28;20505;-66
2023/08/31 04:18:47;;;;;;;34.92;26.00;;;;;;;10.41;100.00;100815.00;5031191;28;20013;-67
2023/08/31 04:21:13;;;;;;;32.03;24.60;;;;;;;10.36;100.00;100812.00;5032192;28;20053;-66
2023/08/31 04:23:38;;;;;;;33.42;25.48;;;;;;;10.38;100.00;100812.66;5029994;28;20115;-67
2023/08/31 04:26:13;;;;;;;31.00;25.45;;;;;;;10.35;100.00;100813.84;5030699;28;20030;-66
2023/08/31 04:28:40;;;;;;;35.95;25.42;;;;;;;10.35;100.00;100824.44;5032599;28;20423;-67
2023/08/31 04:31:06;;;;;;;34.42;25.02;;;;;;;10.34;100.00;100822.78;5041569;28;20482;-67
2023/08/31 04:33:34;;;;;;;36.38;25.55;;;;;;;10.34;100.00;100814.84;5035893;28;20033;-67
2023/08/31 04:35:59;;;;;;;35.20;25.48;;;;;;;10.34;100.00;100821.97;5031283;28;20088;-67
2023/08/31 04:38:24;;;;;;;35.95;25.50;;;;;;;10.33;100.00;100826.44;5035639;28;20426;-66
2023/08/31 04:40:49;;;;;;;34.72;24.73;;;;;;;10.32;100.00;100826.63;5040088;28;20032;-67
2023/08/31 04:43:15;;;;;;;33.08;23.83;;;;;;;10.33;100.00;100829.09;5035004;28;20028;-66
2023/08/31 04:45:40;;;;;;;31.42;24.00;;;;;;;10.33;100.00;100830.94;5036642;28;20033;-67
2023/08/31 04:48:05;;;;;;;33.25;24.30;;;;;;;10.32;100.00;100834.59;5036135;28;20694;-66
2023/08/31 04:50:31;;;;;;;30.98;23.75;;;;;;;10.32;100.00;100838.06;5043883;28;20052;-66
2023/08/31 04:52:56;;;;;;;29.42;23.55;;;;;;;10.32;100.00;100838.06;5032420;28;20036;-66
2023/08/31 04:55:22;;;;;;;32.72;24.20;;;;;;;10.32;100.00;100831.94;5042707;28;20033;-67
2023/08/31 04:57:47;;;;;;;32.35;23.05;;;;;;;10.35;100.00;100843.03;5034225;28;20025;-67
2023/08/31 05:00:13;;;;;;;30.58;23.10;;;;;;;10.37;100.00;100842.88;5031856;28;20040;-67
2023/08/31 05:02:38;;;;;;;31.85;22.63;;;;;;;10.41;100.00;100844.22;5033808;28;20144;-66
2023/08/31 05:05:05;;;;;;;29.50;23.13;;;;;;;10.45;100.00;100853.50;5035270;28;20036;-66
2023/08/31 05:07:30;;;;;;;28.63;22.00;;;;;;;10.45;100.00;100845.53;5036848;28;20021;-66
2023/08/31 05:09:55;;;;;;;30.25;22.50;;;;;;;10.51;100.00;100860.78;5044517;28;20090;-66
2023/08/31 05:12:20;;;;;;;29.52;22.65;;;;;;;10.52;100.00;100855.28;5032738;28;20056;-66
2023/08/31 05:14:46;;;;;;;27.88;21.10;;;;;;;10.50;100.00;100851.16;5035464;28;20037;-67
2023/08/31 05:17:11;;;;;;;28.65;21.23;;;;;;;10.53;100.00;100859.59;5033183;28;20033;-67
2023/08/31 05:19:36;;;;;;;28.73;20.40;;;;;;;10.54;100.00;100865.72;5030866;28;20112;-66
2023/08/31 05:22:01;;;;;;;26.70;20.02;;;;;;;10.54;100.00;100865.72;5041095;28;20032;-66
2023/08/31 05:24:27;;;;;;;28.25;19.33;;;;;;;10.54;100.00;100873.69;5038590;28;20040;-66
2023/08/31 05:26:52;;;;;;;28.58;19.45;;;;;;;10.53;100.00;100869.41;5035394;28;20037;-66
2023/08/31 05:29:17;;;;;;;28.77;19.95;;;;;;;10.54;100.00;100876.34;5036053;28;20057;-66
2023/08/31 05:31:43;;;;;;;27.52;18.88;;;;;;;10.56;100.00;100879.66;5034669;28;20098;-66
2023/08/31 05:34:10;;;;;;;25.45;19.50;;;;;;;10.57;100.00;100881.31;5035091;28;20028;-67
2023/08/31 05:36:35;;;;;;;25.85;19.02;;;;;;;10.58;100.00;100882.97;5031949;28;20595;-66
2023/08/31 05:39:01;;;;;;;25.00;18.48;;;;;;;10.60;100.00;100888.94;5040522;28;20021;-67
2023/08/31 05:41:26;;;;;;;27.73;19.00;;;;;;;10.62;100.00;100889.59;5043082;28;20029;-66
2023/08/31 05:43:52;;;;;;;25.55;18.90;;;;;;;10.66;100.00;100892.75;5033216;28;20180;-67
2023/08/31 05:46:17;;;;;;;27.35;19.23;;;;;;;10.69;100.00;100898.56;5038759;28;20060;-67
2023/08/31 05:48:42;;;;;;;24.80;18.25;;;;;;;10.73;100.00;100902.56;5030595;28;20139;-67
2023/08/31 05:51:08;;;;;;;21.95;18.20;;;;;;;10.76;100.00;100901.38;5030520;28;20485;-66
2023/08/31 05:53:33;;;;;;;25.58;17.85;;;;;;;10.78;100.00;100902.03;5034491;28;20100;-66
2023/08/31 05:56:05;;;;;;;23.30;17.13;;;;;;;10.79;100.00;100901.88;5037685;28;20396;-67
2023/08/31 05:58:34;;;;;;;24.10;17.63;;;;;;;10.83;100.00;100903.19;5036096;28;20028;-66
2023/08/31 06:01:03;;;;;;;20.98;16.73;;;;;;;10.85;100.00;100905.66;5032177;28;20027;-67
2023/08/31 06:03:29;;;;;;;25.80;17.65;;;;;;;10.89;100.00;100906.97;5034889;28;20037;-66
2023/08/31 06:05:56;;;;;;;24.45;16.60;;;;;;;10.93;100.00;100916.25;5032430;28;20025;-67
2023/08/31 06:08:22;;;;;;;23.42;17.13;;;;;;;10.97;100.00;100914.06;5031545;28;20108;-67
2023/08/31 06:10:47;;;;;;;25.40;16.42;;;;;;;11.00;100.00;100909.28;5035234;28;20108;-66
2023/08/31 06:13:12;;;;;;;25.25;17.15;;;;;;;11.03;100.00;100908.94;5046335;28;20033;-67
2023/08/31 06:15:37;;;;;;;21.75;16.52;;;;;;;11.05;100.00;100911.41;5044083;28;20414;-66
2023/08/31 06:18:04;;;;;;;22.80;16.38;;;;;;;11.11;100.00;100916.03;5044094;28;20104;-66
2023/08/31 06:20:29;;;;;;;22.50;16.60;;;;;;;11.16;100.00;100919.00;5045436;28;20107;-67
2023/08/31 06:22:55;;;;;;;22.08;16.08;;;;;;;11.21;100.00;100918.47;5030267;28;20026;-66
2023/08/31 06:25:22;;;;;;;25.23;16.08;;;;;;;11.26;100.00;100913.47;5038110;28;20044;-67
2023/08/31 06:27:47;;;;;;;20.42;16.17;;;;;;;11.31;100.00;100917.28;5044059;28;20040;-66
2023/08/31 06:30:15;;;;;;;19.85;15.60;;;;;;;11.39;100.00;100911.94;5046370;28;20025;-66
2023/08/31 06:32:46;;;;;;;24.35;15.85;;;;;;;11.48;100.00;100918.03;5039174;28;20033;-66
2023/08/31 06:35:12;;;;;;;19.83;14.98;;;;;;;11.54;100.00;100921.81;5047123;28;20112;-67
2023/08/31 06:37:38;;;;;;;18.20;14.98;;;;;;;11.60;100.00;100926.44;5049315;28;20032;-67
2023/08/31 06:40:08;;;;;;;22.15;15.75;;;;;;;11.69;100.00;100922.72;5044640;28;20415;-67
2023/08/31 06:42:37;;;;;;;22.23;15.27;;;;;;;11.76;100.00;100926.34;5046962;28;20544;-67
2023/08/31 06:45:07;;;;;;;23.63;15.50;;;;;;;11.84;100.00;100931.63;5048526;28;20025;-66
2023/08/31 06:47:33;;;;;;;20.13;14.75;;;;;;;11.91;100.00;100935.25;5037948;28;20457;-67
2023/08/31 06:49:58;;;;;;;18.35;14.20;;;;;;;11.97;100.00;100939.88;5036635;28;20040;-66
2023/08/31 06:52:27;;;;;;;16.52;13.90;;;;;;;12.04;100.00;100942.66;5047151;28;20032;-67
2023/08/31 06:54:55;;;;;;;21.58;14.93;;;;;;;12.14;100.00;100950.38;5040972;28;20032;-67
2023/08/31 06:57:24;;;;;;;18.52;14.40;;;;;;;12.23;100.00;100946.66;5046242;28;20075;-67
2023/08/31 06:59:49;;;;;;;24.92;15.45;;;;;;;12.35;100.00;100947.88;5046743;28;20140;-67
2023/08/31 07:02:15;;;;;;;20.65;13.88;;;;;;;12.43;100.00;100950.47;5046803;28;20044;-67
2023/08/31 07:04:40;;;;;;;19.15;14.55;;;;;;;12.50;100.00;100955.94;5043712;28;20100;-67
2023/08/31 07:07:06;;;;;;;17.52;13.68;;;;;;;12.57;100.00;100960.34;5046166;28;20036;-67
2023/08/31 07:09:32;;;;;;;18.13;13.35;;;;;;;12.64;100.00;100955.13;5042915;28;20041;-67
2023/08/31 07:11:58;;;;;;;20.10;13.60;;;;;;;12.68;100.00;100967.91;5041261;28;20049;-67
2023/08/31 07:14:23;;;;;;;17.42;12.77;;;;;;;12.74;100.00;100973.53;5040520;28;20446;-67
2023/08/31 07:16:48;;;;;;;19.30;12.55;;;;;;;12.84;100.00;100968.75;5048010;28;20074;-67
2023/08/31 07:19:14;;;;;;;16.98;13.45;;;;;;;12.93;100.00;100962.31;5045983;28;20023;-67
2023/08/31 07:21:39;;;;;;;16.58;13.13;;;;;;;13.01;100.00;100968.41;5048730;28;20068;-67
2023/08/31 07:24:04;;;;;;;15.00;12.38;;;;;;;13.14;100.00;100964.28;5047696;28;20055;-67
2023/08/31 07:26:30;;;;;;;15.63;12.23;;;;;;;13.19;100.00;100964.56;5038114;28;20198;-67
2023/08/31 07:28:55;;;;;;;16.25;12.05;;;;;;;13.26;100.00;100970.81;5045100;28;20052;-67
2023/08/31 07:31:20;;;;;;;15.95;12.30;;;;;;;13.36;100.00;100965.22;5048835;28;20100;-67
2023/08/31 07:33:45;;;;;;;18.55;12.02;;;;;;;13.44;100.00;100965.13;5039215;28;20498;-67
2023/08/31 07:36:11;;;;;;;17.08;11.93;;;;;;;13.57;100.00;100960.75;5049277;28;20029;-67
2023/08/31 07:38:36;;;;;;;15.48;11.75;;;;;;;13.63;100.00;100968.03;5042977;28;20414;-67
2023/08/31 07:41:02;;;;;;;13.85;10.93;;;;;;;13.75;100.00;100973.69;5047608;28;20478;-67
2023/08/31 07:43:27;;;;;;;17.75;11.20;;;;;;;13.85;100.00;100962.72;5044054;28;20028;-67
2023/08/31 07:45:53;;;;;;;17.20;10.80;;;;;;;13.91;100.00;100967.31;5043155;28;20017;-67
2023/08/31 07:48:19;;;;;;;20.20;10.80;;;;;;;14.03;100.00;100970.31;5032474;28;20025;-67
2023/08/31 07:50:45;;;;;;;18.02;10.52;;;;;;;14.06;100.00;100973.41;5037659;28;20031;-67
2023/08/31 07:53:11;;;;;;;20.85;10.95;;;;;;;14.16;100.00;100973.09;5032295;28;20040;-67
2023/08/31 07:55:36;;;;;;;15.45;9.90;;;;;;;14.20;100.00;100967.22;5030761;28;20048;-67
2023/08/31 07:58:02;;;;;;;16.48;10.40;;;;;;;14.30;100.00;100974.06;5035562;28;20047;-67
2023/08/31 08:00:27;;;;;;;17.15;10.00;;;;;;;14.37;100.00;100974.94;5034947;28;20052;-67
2023/08/31 08:02:52;;;;;;;15.85;10.40;;;;;;;14.45;100.00;100972.97;5034189;28;20045;-67
2023/08/31 08:05:18;;;;;;;15.35;10.73;;;;;;;14.58;100.00;100977.63;5035205;28;20032;-67
2023/08/31 08:07:43;;;;;;;15.02;9.90;;;;;;;14.65;100.00;100981.19;5037720;28;20045;-67
2023/08/31 08:10:09;;;;;;;13.63;8.80;;;;;;;14.74;100.00;100977.31;5036276;28;20021;-67
2023/08/31 08:12:45;;;;;;;15.52;9.13;;;;;;;14.82;100.00;100992.41;5031921;28;20028;-67
2023/08/31 08:15:11;;;;;;;14.38;9.48;;;;;;;14.82;100.00;100987.06;5034316;28;20107;-67
2023/08/31 08:17:36;;;;;;;18.25;8.88;;;;;;;14.90;100.00;100994.94;5032782;28;20543;-67
2023/08/31 08:20:03;;;;;;;15.55;8.70;;;;;;;14.97;100.00;100989.63;5031104;28;20089;-67
2023/08/31 08:22:28;;;;;;;17.90;9.10;;;;;;;15.05;100.00;100992.19;5031740;28;20033;-67
2023/08/31 08:24:53;;;;;;;15.00;8.60;;;;;;;15.15;100.00;100996.13;5031412;28;20032;-67
2023/08/31 08:27:20;;;;;;;14.07;8.15;;;;;;;15.25;99.83;100998.44;5035585;28;20538;-67
2023/08/31 08:29:45;;;;;;;15.75;8.45;;;;;;;15.37;99.65;100998.75;5045234;28;20068;-67
2023/08/31 08:32:11;;;;;;;13.43;8.68;;;;;;;15.46;99.23;101003.72;5035094;28;20459;-67
2023/08/31 08:34:36;;;;;;;15.07;8.65;;;;;;;15.55;98.94;101003.53;5028515;28;20079;-67
2023/08/31 08:37:03;;;;;;;14.00;8.52;;;;;;;15.62;98.33;100999.09;5036634;28;20021;-67
2023/08/31 08:39:28;;;;;;;11.55;6.78;;;;;;;15.67;96.29;101002.00;5033881;28;20053;-67
2023/08/31 08:41:55;;;;;;;13.68;6.45;;;;;;;15.70;95.33;101007.78;5034733;28;20053;-67
2023/08/31 08:44:22;;;;;;;12.10;6.90;;;;;;;15.76;94.81;101006.13;5034687;28;20028;-67
2023/08/31 08:46:49;;;;;;;9.98;6.75;;;;;;;15.85;94.64;101004.09;5039322;28;20053;-67
2023/08/31 08:49:15;;;;;;;14.27;7.47;;;;;;;15.91;94.40;101008.69;5026658;28;20105;-67
2023/08/31 08:51:41;;;;;;;11.55;6.55;;;;;;;16.03;94.50;101007.06;5033988;28;20502;-67
2023/08/31 08:54:06;;;;;;;11.65;5.65;;;;;;;16.04;91.78;101004.16;5034009;28;20103;-67
2023/08/31 08:56:32;;;;;;;11.75;5.95;;;;;;;16.17;91.31;101014.09;5032458;28;20025;-67
2023/08/31 08:58:57;;;;;;;9.23;5.85;;;;;;;16.25;89.89;101018.44;5027610;28;20029;-67
2023/08/31 09:01:23;;;;;;;9.20;4.50;;;;;;;16.32;89.17;101012.06;5025710;28;20021;-67
2023/08/31 09:03:49;;;;;;;7.25;4.70;;;;;;;16.46;88.10;101014.75;5032700;28;20059;-67
2023/08/31 09:06:15;;;;;;;10.00;4.85;;;;;;;16.56;86.54;101017.88;5031491;28;20025;-67
2023/08/31 09:08:41;;;;;;;8.23;5.30;;;;;;;16.68;85.69;101016.25;5028093;28;20037;-67
2023/08/31 09:11:06;;;;;;;10.50;4.78;;;;;;;16.73;84.84;101019.94;5032227;28;20025;-67
2023/08/31 09:13:33;;;;;;;7.70;4.30;;;;;;;16.83;83.41;101013.38;5030229;28;20036;-67
2023/08/31 09:15:58;;;;;;;8.32;4.40;;;;;;;16.95;82.64;101022.41;5030737;28;20060;-67
2023/08/31 09:18:28;;;;;;;6.70;3.55;;;;;;;16.92;79.78;101020.97;5029855;28;20057;-67
2023/08/31 09:20:56;;;;;;;5.82;4.38;;;;;;;16.98;79.58;101025.50;5036082;28;20076;-67
2023/08/31 09:23:21;;;;;;;8.13;4.53;;;;;;;17.11;80.66;101021.19;5028127;28;20217;-67
2023/08/31 09:25:54;;;;;;;5.22;4.00;;;;;;;17.31;81.36;101027.31;5032849;28;20037;-67
2023/08/31 09:28:26;;;;;;;9.07;4.47;;;;;;;17.50;80.80;101031.00;5029762;28;20025;-67
2023/08/31 09:30:53;;;;;;;8.73;4.28;;;;;;;17.60;80.40;101026.81;5034077;28;20108;-67
2023/08/31 09:33:22;;;;;;;9.75;4.72;;;;;;;17.74;80.53;101037.56;5031723;28;20029;-67
2023/08/31 09:35:50;;;;;;;10.20;4.63;;;;;;;17.86;79.27;101025.09;5032067;28;20112;-67
2023/08/31 09:38:15;;;;;;;7.75;4.68;;;;;;;17.97;78.93;101029.81;5033667;28;20518;-67
2023/08/31 09:40:40;;;;;;;10.80;5.30;;;;;;;17.89;75.98;101036.22;5045279;28;20120;-67
2023/08/31 09:43:07;;;;;;;7.13;4.40;;;;;;;17.97;76.68;101027.13;5028962;28;20021;-67
2023/08/31 09:45:34;;;;;;;7.65;4.45;;;;;;;18.04;76.48;101027.09;5031387;28;20029;-67
2023/08/31 09:48:01;;;;;;;7.18;4.70;;;;;;;17.87;74.84;101041.00;5039010;28;20467;-67
2023/08/31 09:50:29;;;;;;;7.63;4.85;;;;;;;17.91;76.13;101026.09;5039792;28;20475;-67
2023/08/31 09:53:00;;;;;;;7.40;4.88;;;;;;;18.05;76.45;101023.34;5030439;28;20025;-67
2023/08/31 09:55:28;;;;;;;7.10;5.18;;;;;;;18.01;75.45;101036.41;5035911;28;20534;-67
2023/08/31 09:57:56;;;;;;;8.18;4.78;;;;;;;18.07;74.66;101035.53;5031983;28;20390;-67
2023/08/31 10:00:22;;;;;;;8.55;4.50;;;;;;;18.26;74.71;101028.41;5035149;28;20076;-67
2023/08/31 10:02:49;;;;;;;6.50;4.82;;;;;;;18.41;73.84;101025.41;5029958;28;20609;-67
2023/08/31 10:05:15;;;;;;;11.88;4.93;;;;;;;18.43;72.84;101039.44;5033360;28;20025;-67
2023/08/31 10:07:40;;;;;;;6.20;4.15;;;;;;;18.22;71.90;101030.72;5031705;28;20483;-67
2023/08/31 10:10:06;;;;;;;5.18;3.85;;;;;;;17.98;71.90;101025.25;5034644;28;20029;-67
2023/08/31 10:12:33;;;;;;;9.85;5.03;;;;;;;18.04;73.21;101027.09;5032803;28;20021;-67
2023/08/31 10:14:59;;;;;;;8.10;4.68;;;;;;;18.23;73.23;101028.84;5044432;28;20021;-67
2023/08/31 10:17:25;;;;;;;5.65;4.00;;;;;;;18.43;72.71;101020.63;5041723;28;20037;-67
2023/08/31 10:19:52;;;;;;;9.85;4.40;;;;;;;18.60;72.56;101029.00;5030572;28;20045;-67
2023/08/31 10:22:17;;;;;;;6.95;4.03;;;;;;;18.68;71.57;101031.44;5029268;28;20035;-67
2023/08/31 10:25:03;;;;;;;5.82;3.53;;;;;;;18.55;70.81;101018.91;5030251;28;20031;-67
2023/08/31 10:27:35;;;;;;;9.52;3.58;;;;;;;18.43;70.47;101010.69;5030227;28;20504;-67
2023/08/31 10:30:32;;;;;;;6.78;3.90;;;;;;;18.48;69.69;101016.22;5032117;28;20075;-67
2023/08/31 10:33:04;;;;;;;6.72;3.33;;;;;;;18.61;68.67;101023.41;5032289;28;20038;-68
2023/08/31 10:35:50;;;;;;;4.78;3.00;;;;;;;18.74;68.02;101007.16;5033197;28;20033;-67
2023/08/31 10:38:25;;;;;;;5.90;2.70;;;;;;;18.80;66.89;101010.88;5033086;28;20013;-67
2023/08/31 10:41:02;;;;;;;6.30;2.80;;;;;;;18.92;67.14;101013.66;5045021;28;20032;-67
2023/08/31 10:43:42;;;;;;;6.47;3.20;;;;;;;19.02;66.81;101019.34;5029255;28;20029;-67
2023/08/31 10:46:33;;;;;;;8.77;3.85;;;;;;;18.94;66.41;101007.00;5038335;28;20029;-67
2023/08/31 10:49:00;;;;;;;7.78;4.10;;;;;;;18.87;66.59;101023.22;5029752;28;20049;-67
2023/08/31 10:51:32;;;;;;;4.88;2.85;;;;;;;18.95;66.13;101008.66;5038650;28;20517;-67
2023/08/31 10:54:10;;;;;;;7.03;2.90;;;;;;;18.94;65.54;101017.75;5030132;28;20013;-67
2023/08/31 10:57:08;;;;;;;4.40;2.60;;;;;;;18.85;64.67;101016.41;5031350;28;20042;-67
2023/08/31 10:59:50;;;;;;;4.82;2.50;;;;;;;18.88;63.57;101015.97;5041900;28;20043;-67
2023/08/31 11:02:35;;;;;;;7.32;2.80;;;;;;;18.83;63.52;101013.94;5030277;28;20406;-67
2023/08/31 11:05:14;;;;;;;4.82;2.60;;;;;;;18.68;63.39;101023.38;5029389;28;20052;-67
2023/08/31 11:07:41;;;;;;;6.82;3.10;;;;;;;18.65;62.90;101024.63;5035126;28;20606;-67